Time;durP1;ratioP1;P1;durP2;ratioP2;P2;SDS_P1;SDS_P2;PMS_P1;PMS_P2;Temp;Humidity;BMP_temperature;BMP_pressure;BME280_temperature;BME280_humidity;BME280_pressure;Samples;Min_cycle;Max_cycle;Signal;HPM_P1;HPM_P2
2023/07/07 00:01:49;;;;;;;0.00;0.00;;;16.20;98.40;;;;;;5052407;28;20817;-62
2023/07/07 00:04:15;;;;;;;0.00;0.00;;;16.20;98.60;;;;;;5052367;28;20192;-62
2023/07/07 00:06:40;;;;;;;0.00;0.00;;;16.20;98.80;;;;;;5052418;28;20495;-62
2023/07/07 00:09:06;;;;;;;0.00;0.00;;;16.10;98.90;;;;;;5052515;28;20200;-62
2023/07/07 00:11:31;;;;;;;0.00;0.00;;;16.10;99.00;;;;;;5052828;28;20672;-62
2023/07/07 00:13:57;;;;;;;0.00;0.00;;;16.10;99.10;;;;;;5051190;28;20637;-62
2023/07/07 00:16:27;;;;;;;0.00;0.00;;;16.00;99.30;;;;;;5052082;28;20687;-63
2023/07/07 00:18:54;;;;;;;0.00;0.00;;;16.00;99.30;;;;;;5052195;28;20170;-62
2023/07/07 00:21:24;;;;;;;0.00;0.00;;;16.00;99.40;;;;;;5052163;28;20235;-62
2023/07/07 00:23:54;;;;;;;0.30;0.30;;;15.90;99.50;;;;;;5052242;28;20174;-62
2023/07/07 00:26:20;;;;;;;0.00;0.00;;;15.90;99.70;;;;;;5051872;28;20280;-62
2023/07/07 00:28:46;;;;;;;0.03;0.03;;;15.90;99.90;;;;;;5051995;28;20321;-62
2023/07/07 00:31:12;;;;;;;0.00;0.00;;;15.80;99.90;;;;;;5052004;28;20256;-62
2023/07/07 00:33:37;;;;;;;0.10;0.10;;;15.80;99.90;;;;;;5050585;28;20174;-62
2023/07/07 00:36:03;;;;;;;0.35;0.30;;;15.80;99.90;;;;;;5052029;28;20170;-62
2023/07/07 00:38:29;;;;;;;0.00;0.00;;;15.80;99.90;;;;;;5052017;28;20204;-62
2023/07/07 00:40:54;;;;;;;0.00;0.00;;;15.80;99.90;;;;;;5051839;28;20221;-63
2023/07/07 00:43:21;;;;;;;0.10;0.10;;;15.70;99.90;;;;;;5052075;28;20256;-63
2023/07/07 00:45:46;;;;;;;0.00;0.00;;;15.70;99.90;;;;;;5051742;28;20711;-63
2023/07/07 00:48:22;;;;;;;0.55;0.38;;;15.70;99.90;;;;;;5050029;28;20170;-63
2023/07/07 00:50:56;;;;;;;0.00;0.00;;;15.70;99.90;;;;;;5051777;28;20177;-63
2023/07/07 00:53:24;;;;;;;0.00;0.00;;;15.70;99.90;;;;;;5050353;28;20177;-62
2023/07/07 00:55:54;;;;;;;0.00;0.00;;;15.60;99.90;;;;;;5051748;28;20169;-63
2023/07/07 00:58:21;;;;;;;0.00;0.00;;;15.60;99.90;;;;;;5051811;28;20201;-62
2023/07/07 01:00:59;;;;;;;0.00;0.00;;;15.60;99.90;;;;;;5051686;28;20300;-63
2023/07/07 01:03:30;;;;;;;0.00;0.00;;;15.60;99.90;;;;;;5051631;28;20836;-62
2023/07/07 01:05:59;;;;;;;0.00;0.00;;;15.50;99.90;;;;;;5051485;28;20276;-63
2023/07/07 01:08:25;;;;;;;0.00;0.00;;;15.50;99.90;;;;;;5047458;28;20181;-62
2023/07/07 01:10:51;;;;;;;0.00;0.00;;;15.50;99.90;;;;;;5051107;28;20181;-63
2023/07/07 01:13:17;;;;;;;0.00;0.00;;;15.50;99.90;;;;;;5040377;28;20185;-62
2023/07/07 01:16:16;;;;;;;0.00;0.00;;;15.40;99.90;;;;;;5051000;28;20272;-62
2023/07/07 01:19:00;;;;;;;0.00;0.00;;;15.40;99.90;;;;;;5040095;28;20236;-62
2023/07/07 01:22:04;;;;;;;0.00;0.00;;;15.40;99.90;;;;;;5049948;28;20222;-63
2023/07/07 01:25:00;;;;;;;0.00;0.00;;;15.40;99.90;;;;;;5029786;28;20270;-62
2023/07/07 01:27:42;;;;;;;0.00;0.00;;;15.40;99.90;;;;;;5041897;28;20288;-62
2023/07/07 01:30:29;;;;;;;0.00;0.00;;;15.30;99.90;;;;;;5031350;28;20729;-62
2023/07/07 01:32:55;;;;;;;0.00;0.00;;;15.30;99.90;;;;;;5033275;28;20190;-62
2023/07/07 01:35:22;;;;;;;0.00;0.00;;;15.30;99.90;;;;;;5050892;28;20197;-62
2023/07/07 01:37:55;;;;;;;0.00;0.00;;;15.30;99.90;;;;;;5051050;28;20161;-62
2023/07/07 01:40:26;;;;;;;0.00;0.00;;;15.20;99.90;;;;;;5050550;28;20556;-62
2023/07/07 01:42:58;;;;;;;0.00;0.00;;;15.20;99.90;;;;;;5051179;28;20204;-62
2023/07/07 01:45:42;;;;;;;0.00;0.00;;;15.20;99.90;;;;;;5050948;28;20204;-62
2023/07/07 01:48:21;;;;;;;0.00;0.00;;;15.20;99.90;;;;;;5050797;28;20242;-62
2023/07/07 01:50:48;;;;;;;0.00;0.00;;;15.20;99.90;;;;;;5050742;28;20188;-62
2023/07/07 01:53:20;;;;;;;0.00;0.00;;;15.20;99.90;;;;;;5050956;28;20183;-63
2023/07/07 01:55:51;;;;;;;0.00;0.00;;;15.20;99.90;;;;;;5050706;28;20251;-63
2023/07/07 01:58:18;;;;;;;0.00;0.00;;;15.20;99.90;;;;;;5050933;28;20177;-63
2023/07/07 02:00:45;;;;;;;1.45;0.15;;;15.10;99.90;;;;;;5050645;28;20606;-63
2023/07/07 02:03:11;;;;;;;0.00;0.00;;;15.10;99.90;;;;;;5050616;28;20276;-63
2023/07/07 02:05:37;;;;;;;0.00;0.00;;;15.10;99.90;;;;;;5049533;28;20271;-63
2023/07/07 02:08:03;;;;;;;0.10;0.10;;;15.10;99.90;;;;;;5050719;28;20239;-63
2023/07/07 02:10:29;;;;;;;0.00;0.00;;;15.00;99.90;;;;;;5049146;28;20590;-63
2023/07/07 02:12:54;;;;;;;0.00;0.00;;;15.00;99.90;;;;;;5050693;28;20166;-63
2023/07/07 02:15:20;;;;;;;0.10;0.10;;;14.90;99.90;;;;;;5050219;28;20177;-63
2023/07/07 02:17:47;;;;;;;0.00;0.00;;;14.90;99.90;;;;;;5050189;28;20215;-63
2023/07/07 02:20:12;;;;;;;0.00;0.00;;;14.90;99.90;;;;;;5049291;28;20208;-63
2023/07/07 02:22:38;;;;;;;0.00;0.00;;;14.80;99.90;;;;;;5050373;28;20181;-63
2023/07/07 02:25:05;;;;;;;0.00;0.00;;;14.80;99.90;;;;;;5050043;28;20175;-63
2023/07/07 02:27:30;;;;;;;0.00;0.00;;;14.80;99.90;;;;;;5049871;28;20263;-63
2023/07/07 02:29:56;;;;;;;0.00;0.00;;;14.70;99.90;;;;;;5050048;28;20209;-63
2023/07/07 02:32:21;;;;;;;0.00;0.00;;;14.70;99.90;;;;;;5049927;28;20185;-63
2023/07/07 02:34:47;;;;;;;0.00;0.00;;;14.70;99.90;;;;;;5049638;28;20264;-63
2023/07/07 02:37:17;;;;;;;0.00;0.00;;;14.70;99.90;;;;;;5050560;28;20533;-63
2023/07/07 02:39:45;;;;;;;0.00;0.00;;;14.70;99.90;;;;;;5053608;28;20189;-63
2023/07/07 02:42:11;;;;;;;0.00;0.00;;;14.60;99.90;;;;;;5053990;28;20196;-63
2023/07/07 02:44:38;;;;;;;0.00;0.00;;;14.60;99.90;;;;;;5054050;28;20193;-63
2023/07/07 02:47:03;;;;;;;0.00;0.00;;;14.60;99.90;;;;;;5054277;28;20197;-63
2023/07/07 02:49:29;;;;;;;0.00;0.00;;;14.60;99.90;;;;;;5054017;28;20641;-63
2023/07/07 02:51:54;;;;;;;0.20;0.20;;;14.50;99.90;;;;;;5054125;28;20178;-63
2023/07/07 02:54:20;;;;;;;0.00;0.00;;;14.50;99.90;;;;;;5053864;28;20207;-63
2023/07/07 02:56:45;;;;;;;0.00;0.00;;;14.50;99.90;;;;;;5053767;28;20216;-63
2023/07/07 02:59:11;;;;;;;0.00;0.00;;;14.50;99.90;;;;;;5053691;28;20212;-63
2023/07/07 03:01:36;;;;;;;0.00;0.00;;;14.40;99.90;;;;;;5053699;28;20227;-63
2023/07/07 03:04:02;;;;;;;0.00;0.00;;;14.40;99.90;;;;;;5053381;28;20169;-63
2023/07/07 03:06:28;;;;;;;0.00;0.00;;;14.40;99.90;;;;;;5053683;28;20263;-63
2023/07/07 03:08:54;;;;;;;0.00;0.00;;;14.40;99.90;;;;;;5053605;28;20189;-63
2023/07/07 03:11:21;;;;;;;0.00;0.00;;;14.40;99.90;;;;;;5053482;28;20193;-63
2023/07/07 03:13:48;;;;;;;0.00;0.00;;;14.30;99.90;;;;;;5051682;28;20661;-63
2023/07/07 03:16:23;;;;;;;0.00;0.00;;;14.30;99.90;;;;;;5053032;28;20181;-63
2023/07/07 03:18:57;;;;;;;0.03;0.03;;;14.30;99.90;;;;;;5053112;28;20612;-63
2023/07/07 03:21:23;;;;;;;0.00;0.00;;;14.30;99.90;;;;;;5052843;28;20220;-63
2023/07/07 03:23:53;;;;;;;0.00;0.00;;;14.30;99.90;;;;;;5052472;28;20208;-63
2023/07/07 03:26:20;;;;;;;0.00;0.00;;;14.30;99.90;;;;;;5052894;28;20180;-63
2023/07/07 03:28:46;;;;;;;0.00;0.00;;;14.20;99.90;;;;;;5052498;28;20221;-63
2023/07/07 03:31:13;;;;;;;0.00;0.00;;;14.20;99.90;;;;;;5052784;28;20661;-64
2023/07/07 03:33:40;;;;;;;0.00;0.00;;;14.20;99.90;;;;;;5052992;28;20169;-63
2023/07/07 03:36:08;;;;;;;0.00;0.00;;;14.20;99.90;;;;;;5053303;28;20188;-62
2023/07/07 03:38:34;;;;;;;0.00;0.00;;;14.20;99.90;;;;;;5052918;28;20265;-63
2023/07/07 03:40:59;;;;;;;0.00;0.00;;;14.20;99.90;;;;;;5050947;28;20236;-63
2023/07/07 03:43:25;;;;;;;0.00;0.00;;;14.20;99.90;;;;;;5052533;28;20193;-63
2023/07/07 03:45:50;;;;;;;0.00;0.00;;;14.20;99.90;;;;;;5052108;28;20174;-62
2023/07/07 03:48:16;;;;;;;0.00;0.00;;;14.10;99.90;;;;;;5052743;28;20182;-65
2023/07/07 03:50:41;;;;;;;0.10;0.10;;;14.10;99.90;;;;;;5051723;28;20177;-64
2023/07/07 03:53:07;;;;;;;0.10;0.10;;;14.10;99.90;;;;;;5052948;28;20296;-63
2023/07/07 03:55:32;;;;;;;0.00;0.00;;;14.10;99.90;;;;;;5052392;28;20169;-64
2023/07/07 03:57:58;;;;;;;0.00;0.00;;;14.10;99.90;;;;;;5052083;28;20271;-64
2023/07/07 04:00:23;;;;;;;0.00;0.00;;;14.10;99.90;;;;;;5050769;28;20205;-64
2023/07/07 04:02:49;;;;;;;0.00;0.00;;;14.10;99.90;;;;;;5052267;28;20185;-65
2023/07/07 04:05:14;;;;;;;0.00;0.00;;;14.10;99.90;;;;;;5052047;28;20177;-66
2023/07/07 04:07:40;;;;;;;0.00;0.00;;;14.20;99.90;;;;;;5052187;28;20178;-62
2023/07/07 04:10:08;;;;;;;0.00;0.00;;;14.20;99.90;;;;;;5050941;28;20178;-67
2023/07/07 04:12:33;;;;;;;0.15;0.15;;;14.20;99.90;;;;;;5052165;28;20178;-66
2023/07/07 04:14:59;;;;;;;0.00;0.00;;;14.30;99.90;;;;;;5051754;28;20183;-67
2023/07/07 04:17:26;;;;;;;0.10;0.10;;;14.30;99.90;;;;;;5052253;28;20177;-66
2023/07/07 04:19:52;;;;;;;0.00;0.00;;;14.40;99.90;;;;;;5051388;28;20177;-67
2023/07/07 04:22:18;;;;;;;0.00;0.00;;;14.40;99.90;;;;;;5051466;28;20192;-66
2023/07/07 04:24:44;;;;;;;0.00;0.00;;;14.50;99.90;;;;;;5050666;28;20247;-67
2023/07/07 04:27:09;;;;;;;0.00;0.00;;;14.60;99.90;;;;;;5050258;28;20248;-67
2023/07/07 04:29:36;;;;;;;0.00;0.00;;;14.90;99.90;;;;;;5050206;28;20180;-67
2023/07/07 04:32:02;;;;;;;0.00;0.00;;;15.20;99.90;;;;;;5050179;28;20661;-66
2023/07/07 04:34:27;;;;;;;0.03;0.03;;;15.60;99.90;;;;;;5050232;28;20205;-66
2023/07/07 04:36:53;;;;;;;0.10;0.10;;;16.00;99.90;;;;;;5050259;28;20528;-67
2023/07/07 04:39:18;;;;;;;0.00;0.00;;;16.40;99.90;;;;;;5050043;28;20174;-67
2023/07/07 04:41:44;;;;;;;0.00;0.00;;;16.80;99.90;;;;;;5050101;28;20285;-66
2023/07/07 04:44:10;;;;;;;0.00;0.00;;;17.20;99.90;;;;;;5051648;28;20188;-66
2023/07/07 04:46:38;;;;;;;0.00;0.00;;;17.50;99.90;;;;;;5051653;28;20169;-67
2023/07/07 04:49:08;;;;;;;0.00;0.00;;;17.90;99.90;;;;;;5051671;28;20602;-67
2023/07/07 04:51:36;;;;;;;0.00;0.00;;;18.30;99.90;;;;;;5051513;28;20178;-67
2023/07/07 04:54:02;;;;;;;0.00;0.00;;;18.70;99.70;;;;;;5051715;28;20181;-66
2023/07/07 04:56:28;;;;;;;0.08;0.08;;;19.10;99.00;;;;;;5050232;28;20570;-66
2023/07/07 04:58:53;;;;;;;0.00;0.00;;;19.40;98.00;;;;;;5050172;28;20174;-66
2023/07/07 05:01:22;;;;;;;0.00;0.00;;;19.90;97.10;;;;;;5051051;28;20301;-67
2023/07/07 05:03:53;;;;;;;0.00;0.00;;;20.30;96.00;;;;;;5051323;28;20182;-67
2023/07/07 05:06:20;;;;;;;0.00;0.00;;;20.70;94.60;;;;;;5051199;28;20284;-66
2023/07/07 05:08:46;;;;;;;0.00;0.00;;;21.10;93.80;;;;;;5051209;28;20200;-68
2023/07/07 05:11:13;;;;;;;0.00;0.00;;;21.40;92.80;;;;;;5049869;28;20220;-67
2023/07/07 05:13:39;;;;;;;0.00;0.00;;;21.80;91.90;;;;;;5051175;28;20273;-66
2023/07/07 05:16:10;;;;;;;0.00;0.00;;;22.10;91.40;;;;;;5051200;28;20266;-66
2023/07/07 05:18:36;;;;;;;0.00;0.00;;;22.40;90.30;;;;;;5051044;28;20169;-66
2023/07/07 05:21:02;;;;;;;0.00;0.00;;;22.70;89.10;;;;;;5050783;28;20216;-66
2023/07/07 05:23:28;;;;;;;0.00;0.00;;;23.10;87.40;;;;;;5051097;28;20664;-66
2023/07/07 05:25:53;;;;;;;0.00;0.00;;;23.50;85.50;;;;;;5050730;28;20212;-66
2023/07/07 05:28:19;;;;;;;0.00;0.00;;;23.90;84.20;;;;;;5050851;28;20228;-66
2023/07/07 05:30:45;;;;;;;0.00;0.00;;;24.20;82.10;;;;;;5050992;28;20204;-66
2023/07/07 05:33:11;;;;;;;0.00;0.00;;;24.50;80.70;;;;;;5049630;28;20205;-66
2023/07/07 05:35:55;;;;;;;0.00;0.00;;;24.90;78.90;;;;;;5050419;28;20558;-66
2023/07/07 05:38:23;;;;;;;0.00;0.00;;;25.30;75.80;;;;;;5050179;28;20177;-66
2023/07/07 05:40:48;;;;;;;0.00;0.00;;;25.60;75.10;;;;;;5050657;28;20627;-66
2023/07/07 05:43:19;;;;;;;0.00;0.00;;;25.90;73.70;;;;;;5050594;28;20200;-66
2023/07/07 05:45:45;;;;;;;0.00;0.00;;;26.30;72.70;;;;;;5050756;28;20173;-66
2023/07/07 05:48:12;;;;;;;0.00;0.00;;;26.60;70.80;;;;;;5050624;28;20181;-66
2023/07/07 05:50:39;;;;;;;0.00;0.00;;;26.90;66.70;;;;;;5050554;28;20212;-66
2023/07/07 05:53:05;;;;;;;0.00;0.00;;;27.10;65.10;;;;;;5050931;28;20682;-66
2023/07/07 05:55:34;;;;;;;0.00;0.00;;;27.20;64.20;;;;;;5050354;28;20256;-66
2023/07/07 05:58:01;;;;;;;0.00;0.00;;;27.40;62.40;;;;;;5050508;28;20648;-66
2023/07/07 06:00:28;;;;;;;0.00;0.00;;;27.50;60.90;;;;;;5050369;28;20208;-66
2023/07/07 06:02:54;;;;;;;0.00;0.00;;;27.80;61.00;;;;;;5050513;28;20258;-66
2023/07/07 06:05:20;;;;;;;0.00;0.00;;;28.10;60.40;;;;;;5050525;28;20256;-66
2023/07/07 06:07:47;;;;;;;0.00;0.00;;;28.40;58.80;;;;;;5050502;28;20311;-64
2023/07/07 06:10:13;;;;;;;0.00;0.00;;;28.70;58.40;;;;;;5050152;28;20196;-64
2023/07/07 06:12:39;;;;;;;0.00;0.00;;;29.00;58.30;;;;;;5051760;28;20169;-65
2023/07/07 06:15:05;;;;;;;0.00;0.00;;;29.40;57.80;;;;;;5054648;28;20191;-64
2023/07/07 06:17:31;;;;;;;0.00;0.00;;;29.80;57.00;;;;;;5053118;28;20215;-64
2023/07/07 06:19:56;;;;;;;0.20;0.10;;;30.10;56.80;;;;;;5054432;28;20185;-64
2023/07/07 06:22:22;;;;;;;0.00;0.00;;;30.40;56.10;;;;;;5054294;28;20185;-64
2023/07/07 06:24:47;;;;;;;0.00;0.00;;;30.60;55.30;;;;;;5054644;28;20177;-64
2023/07/07 06:27:13;;;;;;;0.00;0.00;;;30.80;54.40;;;;;;5054407;28;20266;-64
2023/07/07 06:29:38;;;;;;;0.00;0.00;;;31.00;53.50;;;;;;5054640;28;20190;-64
2023/07/07 06:32:04;;;;;;;0.00;0.00;;;31.30;53.20;;;;;;5054580;28;20170;-64
2023/07/07 06:34:30;;;;;;;0.00;0.00;;;31.60;52.10;;;;;;5054346;28;20177;-64
2023/07/07 06:36:55;;;;;;;0.00;0.00;;;31.80;51.40;;;;;;5054604;28;20169;-64
2023/07/07 06:39:21;;;;;;;0.00;0.00;;;32.20;50.60;;;;;;5054483;28;20173;-64
2023/07/07 06:41:46;;;;;;;0.00;0.00;;;32.60;50.30;;;;;;5054418;28;20668;-64
2023/07/07 06:44:12;;;;;;;0.00;0.00;;;33.00;49.30;;;;;;5054124;28;20177;-64
2023/07/07 06:46:38;;;;;;;0.00;0.00;;;33.30;48.00;;;;;;5054099;28;20169;-64
2023/07/07 06:49:04;;;;;;;0.00;0.00;;;33.50;47.30;;;;;;5054140;28;20177;-64
2023/07/07 06:51:30;;;;;;;0.00;0.00;;;33.50;46.20;;;;;;5054083;28;20181;-64
2023/07/07 06:53:56;;;;;;;0.00;0.00;;;33.60;45.00;;;;;;5053035;28;20530;-64
2023/07/07 06:56:22;;;;;;;0.00;0.00;;;33.70;44.50;;;;;;5054085;28;20177;-65
2023/07/07 06:58:47;;;;;;;0.00;0.00;;;33.90;43.90;;;;;;5054207;28;20177;-65
2023/07/07 07:01:13;;;;;;;0.00;0.00;;;34.20;43.60;;;;;;5053855;28;20220;-65
2023/07/07 07:03:39;;;;;;;0.00;0.00;;;34.20;42.20;;;;;;5054195;28;20525;-65
2023/07/07 07:06:05;;;;;;;0.00;0.00;;;34.10;42.60;;;;;;5053966;28;20176;-64
2023/07/07 07:08:30;;;;;;;0.00;0.00;;;34.10;42.70;;;;;;5053924;28;20219;-65
2023/07/07 07:10:56;;;;;;;0.00;0.00;;;34.30;42.70;;;;;;5053848;28;20177;-65
2023/07/07 07:13:21;;;;;;;0.00;0.00;;;34.60;41.80;;;;;;5053922;28;20169;-65
2023/07/07 07:15:47;;;;;;;0.00;0.00;;;34.80;41.70;;;;;;5053738;28;20183;-65
2023/07/07 07:18:13;;;;;;;0.00;0.00;;;35.10;41.20;;;;;;5053657;28;20181;-65
2023/07/07 07:20:40;;;;;;;0.20;0.20;;;35.20;40.40;;;;;;5053537;28;20318;-65
2023/07/07 07:23:05;;;;;;;0.00;0.00;;;35.40;40.20;;;;;;5053098;28;20230;-66
2023/07/07 07:25:31;;;;;;;0.00;0.00;;;35.70;40.30;;;;;;5053434;28;20161;-66
2023/07/07 07:27:56;;;;;;;0.00;0.00;;;35.90;40.10;;;;;;5053384;28;20734;-65
2023/07/07 07:30:22;;;;;;;0.00;0.00;;;36.00;38.20;;;;;;5053541;28;20177;-65
2023/07/07 07:32:49;;;;;;;0.00;0.00;;;36.20;38.80;;;;;;5053532;28;20215;-66
2023/07/07 07:35:14;;;;;;;0.00;0.00;;;36.40;39.50;;;;;;5053354;28;20177;-66
2023/07/07 07:37:40;;;;;;;0.00;0.00;;;36.50;38.80;;;;;;5053280;28;20177;-66
2023/07/07 07:40:06;;;;;;;0.38;0.38;;;36.60;37.60;;;;;;5053359;28;20218;-67
2023/07/07 07:42:32;;;;;;;0.00;0.00;;;36.70;37.80;;;;;;5053170;28;20601;-66
2023/07/07 07:44:57;;;;;;;0.00;0.00;;;36.80;37.80;;;;;;5051999;28;20197;-66
2023/07/07 07:47:23;;;;;;;0.10;0.10;;;37.00;37.60;;;;;;5053129;28;20172;-66
2023/07/07 07:49:49;;;;;;;0.00;0.00;;;37.00;37.40;;;;;;5053176;28;20251;-66
2023/07/07 07:52:14;;;;;;;0.00;0.00;;;36.80;36.90;;;;;;5053007;28;20169;-66
2023/07/07 07:54:40;;;;;;;0.00;0.00;;;37.00;38.20;;;;;;5053021;28;20181;-66
2023/07/07 07:57:06;;;;;;;0.00;0.00;;;37.10;36.70;;;;;;5053116;28;20177;-66
2023/07/07 07:59:32;;;;;;;0.00;0.00;;;36.80;36.60;;;;;;5052760;28;20267;-65
2023/07/07 08:01:58;;;;;;;0.10;0.10;;;36.80;36.90;;;;;;5052817;28;20291;-65
2023/07/07 08:04:23;;;;;;;0.00;0.00;;;36.80;37.40;;;;;;5052811;28;20263;-65
2023/07/07 08:06:52;;;;;;;0.05;0.05;;;36.80;38.20;;;;;;5052837;28;20205;-66
2023/07/07 08:09:18;;;;;;;0.00;0.00;;;36.60;38.30;;;;;;5052690;28;20167;-65
2023/07/07 08:11:44;;;;;;;0.00;0.00;;;36.40;38.20;;;;;;5052653;28;20720;-65
2023/07/07 08:14:14;;;;;;;0.00;0.00;;;36.30;38.40;;;;;;5052812;28;20176;-65
2023/07/07 08:16:39;;;;;;;0.00;0.00;;;36.40;37.80;;;;;;5052649;28;20266;-65
2023/07/07 08:19:06;;;;;;;0.00;0.00;;;36.50;38.50;;;;;;5052606;28;20204;-66
2023/07/07 08:21:31;;;;;;;0.00;0.00;;;36.20;38.60;;;;;;5052388;28;20212;-65
2023/07/07 08:23:57;;;;;;;0.00;0.00;;;36.20;38.50;;;;;;5052506;28;20169;-65
2023/07/07 08:26:22;;;;;;;0.00;0.00;;;36.40;38.90;;;;;;5052393;28;20173;-66
2023/07/07 08:28:48;;;;;;;0.00;0.00;;;36.30;39.20;;;;;;5052263;28;20718;-66
2023/07/07 08:31:14;;;;;;;0.00;0.00;;;36.20;38.00;;;;;;5052429;28;20675;-66
2023/07/07 08:33:43;;;;;;;0.60;0.00;;;36.20;38.40;;;;;;5052244;28;20172;-66
2023/07/07 08:36:09;;;;;;;0.00;0.00;;;35.90;40.20;;;;;;5051754;28;20204;-66
2023/07/07 08:38:34;;;;;;;0.25;0.25;;;36.00;39.60;;;;;;5052124;28;20227;-65
2023/07/07 08:41:00;;;;;;;0.00;0.00;;;36.30;39.20;;;;;;5052181;28;20204;-66
2023/07/07 08:43:29;;;;;;;0.00;0.00;;;36.30;39.50;;;;;;5052179;28;20204;-65
2023/07/07 08:46:16;;;;;;;0.00;0.00;;;36.20;39.30;;;;;;5051088;28;21030;-65
2023/07/07 08:48:56;;;;;;;0.00;0.00;;;36.20;38.90;;;;;;5052064;28;20188;-65
2023/07/07 08:51:31;;;;;;;0.00;0.00;;;36.40;39.20;;;;;;5052058;28;20195;-66
2023/07/07 08:54:18;;;;;;;0.00;0.00;;;36.30;38.70;;;;;;5052186;28;20267;-66
2023/07/07 08:57:01;;;;;;;0.00;0.00;;;36.20;39.30;;;;;;5052112;28;20807;-66
2023/07/07 08:59:38;;;;;;;0.00;0.00;;;36.10;39.90;;;;;;5051957;28;20185;-66
2023/07/07 09:02:30;;;;;;;0.08;0.08;;;36.00;40.40;;;;;;5051942;28;20223;-66
2023/07/07 09:05:25;;;;;;;0.00;0.00;;;36.00;39.70;;;;;;5052002;28;20177;-66
2023/07/07 09:08:23;;;;;;;0.00;0.00;;;35.90;40.50;;;;;;5051842;28;20207;-65
2023/07/07 09:11:26;;;;;;;0.00;0.00;;;36.20;40.80;;;;;;5051655;28;20185;-66
2023/07/07 09:13:55;;;;;;;0.00;0.00;;;36.40;40.00;;;;;;5051654;28;20171;-66
2023/07/07 09:16:34;;;;;;;0.00;0.00;;;36.50;40.70;;;;;;5051668;28;20731;-65
2023/07/07 09:19:16;;;;;;;0.00;0.00;;;36.70;41.30;;;;;;5051684;28;20185;-65
2023/07/07 09:21:54;;;;;;;0.00;0.00;;;36.90;39.30;;;;;;5051461;28;20204;-66
2023/07/07 09:24:42;;;;;;;0.00;0.00;;;36.80;38.20;;;;;;5051625;28;20694;-66
2023/07/07 09:27:16;;;;;;;0.00;0.00;;;36.80;39.70;;;;;;5051460;28;20677;-66
2023/07/07 09:29:42;;;;;;;0.00;0.00;;;36.70;40.70;;;;;;5051573;28;20542;-66
2023/07/07 09:32:11;;;;;;;0.00;0.00;;;36.60;38.60;;;;;;5051467;28;20180;-65
2023/07/07 09:34:37;;;;;;;0.28;0.13;;;36.40;39.90;;;;;;5051423;28;20537;-65
2023/07/07 09:37:33;;;;;;;0.00;0.00;;;36.40;39.60;;;;;;5051362;28;20165;-66
2023/07/07 09:40:24;;;;;;;0.90;0.05;;;36.40;40.70;;;;;;5051147;28;20187;-65
2023/07/07 09:43:08;;;;;;;0.00;0.00;;;36.40;39.00;;;;;;5051255;28;20188;-65
2023/07/07 09:45:51;;;;;;;0.00;0.00;;;36.10;39.00;;;;;;5051076;28;20177;-65
2023/07/07 09:48:39;;;;;;;0.13;0.13;;;35.90;38.70;;;;;;5050296;28;20226;-65
2023/07/07 09:51:16;;;;;;;0.00;0.00;;;36.00;39.30;;;;;;5051152;28;20212;-65
2023/07/07 09:53:43;;;;;;;0.15;0.15;;;36.10;38.60;;;;;;5049856;28;20699;-65
2023/07/07 09:56:16;;;;;;;0.00;0.00;;;36.40;39.60;;;;;;5051049;28;20187;-65
2023/07/07 09:58:53;;;;;;;0.05;0.05;;;36.50;38.00;;;;;;5051099;28;20165;-65
2023/07/07 10:01:19;;;;;;;0.00;0.00;;;36.50;37.80;;;;;;5050830;28;20220;-65
2023/07/07 10:03:47;;;;;;;0.00;0.00;;;36.60;37.30;;;;;;5050930;28;20233;-64
2023/07/07 10:06:16;;;;;;;0.00;0.00;;;36.50;37.00;;;;;;5050740;28;20525;-65
2023/07/07 10:08:41;;;;;;;0.10;0.10;;;36.20;35.70;;;;;;5050872;28;20268;-65
2023/07/07 10:11:09;;;;;;;0.00;0.00;;;36.00;36.90;;;;;;5049732;28;20247;-64
2023/07/07 10:13:35;;;;;;;0.00;0.00;;;35.70;36.60;;;;;;5050709;28;20173;-65
2023/07/07 10:16:05;;;;;;;0.00;0.00;;;35.60;37.30;;;;;;5049498;28;20168;-65
2023/07/07 10:18:32;;;;;;;0.20;0.20;;;35.50;36.70;;;;;;5050674;28;20218;-65
2023/07/07 10:21:03;;;;;;;0.00;0.00;;;35.60;37.00;;;;;;5050745;28;20254;-65
2023/07/07 10:23:29;;;;;;;0.00;0.00;;;35.80;37.40;;;;;;5050779;28;20169;-65
2023/07/07 10:25:55;;;;;;;0.00;0.00;;;35.90;35.60;;;;;;5050606;28;20181;-65
2023/07/07 10:28:21;;;;;;;0.00;0.00;;;35.80;36.20;;;;;;5050430;28;20227;-65
2023/07/07 10:30:48;;;;;;;0.20;0.20;;;35.70;36.90;;;;;;5050748;28;20543;-65
2023/07/07 10:33:17;;;;;;;0.10;0.10;;;35.50;37.50;;;;;;5050656;28;20318;-65
2023/07/07 10:35:43;;;;;;;0.00;0.00;;;35.50;36.40;;;;;;5050555;28;20643;-65
2023/07/07 10:38:10;;;;;;;0.22;0.22;;;35.70;36.50;;;;;;5050516;28;20275;-65
2023/07/07 10:40:37;;;;;;;0.00;0.00;;;35.80;36.90;;;;;;5050528;28;20223;-65
2023/07/07 10:43:04;;;;;;;0.00;0.00;;;36.00;36.70;;;;;;5050536;28;20185;-65
2023/07/07 10:45:29;;;;;;;0.00;0.00;;;36.10;34.90;;;;;;5050411;28;20173;-65
2023/07/07 10:47:55;;;;;;;0.10;0.10;;;36.10;35.60;;;;;;5050483;28;20682;-65
2023/07/07 10:50:25;;;;;;;0.00;0.00;;;36.10;35.70;;;;;;5050316;28;20189;-65
2023/07/07 10:53:23;;;;;;;0.00;0.00;;;36.20;35.80;;;;;;5050769;28;20204;-66
2023/07/07 10:56:30;;;;;;;0.00;0.00;;;36.50;37.00;;;;;;5050604;28;20173;-65
2023/07/07 10:59:31;;;;;;;0.10;0.10;;;36.10;34.20;;;;;;5052114;28;20632;-65
2023/07/07 11:02:10;;;;;;;0.10;0.10;;;36.20;35.10;;;;;;5035113;28;20580;-65
2023/07/07 11:05:17;;;;;;;0.10;0.10;;;36.20;35.40;;;;;;5053972;28;20177;-65
2023/07/07 11:08:06;;;;;;;0.30;0.10;;;36.20;32.70;;;;;;5053970;28;20641;-65
2023/07/07 11:10:55;;;;;;;0.00;0.00;;;36.50;35.70;;;;;;5050444;28;20640;-65
2023/07/07 11:13:58;;;;;;;0.00;0.00;;;36.50;34.50;;;;;;5053782;28;20240;-65
2023/07/07 11:17:00;;;;;;;0.00;0.00;;;36.60;34.70;;;;;;5053649;28;20531;-65
2023/07/07 11:20:04;;;;;;;0.00;0.00;;;36.50;33.30;;;;;;5053817;28;20662;-65
2023/07/07 11:23:00;;;;;;;0.00;0.00;;;36.40;34.40;;;;;;5053491;28;20218;-65
2023/07/07 11:25:34;;;;;;;0.00;0.00;;;36.10;35.70;;;;;;5053583;28;20230;-65
2023/07/07 11:28:24;;;;;;;0.00;0.00;;;36.30;36.60;;;;;;5053565;28;20219;-65
2023/07/07 11:31:08;;;;;;;0.00;0.00;;;36.00;33.00;;;;;;5053553;28;20197;-65
2023/07/07 11:34:15;;;;;;;0.00;0.00;;;35.60;34.20;;;;;;5053379;28;20187;-65
2023/07/07 11:36:52;;;;;;;0.28;0.28;;;35.60;35.40;;;;;;5047197;28;20207;-65
2023/07/07 11:39:43;;;;;;;0.00;0.00;;;35.80;34.00;;;;;;5053435;28;20169;-65
2023/07/07 11:42:36;;;;;;;0.00;0.00;;;36.20;32.90;;;;;;5053432;28;20217;-65
2023/07/07 11:45:19;;;;;;;0.00;0.00;;;36.10;34.00;;;;;;5053300;28;20169;-65
2023/07/07 11:48:01;;;;;;;0.00;0.00;;;36.20;33.50;;;;;;5053341;28;20234;-65
2023/07/07 11:50:44;;;;;;;0.00;0.00;;;36.50;32.80;;;;;;5053337;28;20181;-67
2023/07/07 11:53:37;;;;;;;0.00;0.00;;;36.40;32.10;;;;;;5053104;28;20530;-66
2023/07/07 11:56:34;;;;;;;0.00;0.00;;;36.50;31.90;;;;;;5053179;28;20271;-64
2023/07/07 11:59:29;;;;;;;0.00;0.00;;;36.60;31.50;;;;;;5053131;28;20238;-64
2023/07/07 12:01:58;;;;;;;0.00;0.00;;;36.50;31.10;;;;;;5052953;28;20215;-64
2023/07/07 12:04:30;;;;;;;0.00;0.00;;;36.20;31.10;;;;;;5052861;28;20181;-65
2023/07/07 12:07:05;;;;;;;0.10;0.10;;;36.00;32.70;;;;;;5052972;28;20640;-64
2023/07/07 12:09:39;;;;;;;0.52;0.10;;;36.00;33.40;;;;;;5052230;28;20165;-64
2023/07/07 12:12:25;;;;;;;0.93;0.20;;;36.20;31.60;;;;;;5052392;28;20571;-64
2023/07/07 12:15:00;;;;;;;0.10;0.10;;;36.30;32.10;;;;;;5051482;28;20201;-64
2023/07/07 12:17:31;;;;;;;0.00;0.00;;;36.40;33.60;;;;;;5052794;28;20200;-64
2023/07/07 12:20:04;;;;;;;0.10;0.10;;;36.20;31.20;;;;;;5052831;28;20237;-64
2023/07/07 12:22:35;;;;;;;0.10;0.10;;;36.10;32.30;;;;;;5051377;28;20200;-64
2023/07/07 12:25:23;;;;;;;0.00;0.00;;;36.10;32.10;;;;;;5051319;28;20226;-64
2023/07/07 12:27:51;;;;;;;0.00;0.00;;;36.00;30.90;;;;;;5052318;28;20228;-64
2023/07/07 12:30:27;;;;;;;0.00;0.00;;;35.90;31.60;;;;;;5052464;28;20222;-64
2023/07/07 12:32:53;;;;;;;0.10;0.10;;;36.00;31.40;;;;;;5052524;28;20173;-64
2023/07/07 12:35:28;;;;;;;0.00;0.00;;;36.10;31.40;;;;;;5052395;28;20557;-64
2023/07/07 12:37:56;;;;;;;0.00;0.00;;;36.10;30.80;;;;;;5052403;28;20210;-64
2023/07/07 12:40:23;;;;;;;0.00;0.00;;;36.00;32.00;;;;;;5052163;28;20671;-64
2023/07/07 12:43:17;;;;;;;0.05;0.05;;;35.70;31.10;;;;;;5050852;28;20191;-64
2023/07/07 12:45:47;;;;;;;0.00;0.00;;;35.80;33.20;;;;;;5052181;28;20176;-64
2023/07/07 12:48:19;;;;;;;0.03;0.03;;;35.90;31.40;;;;;;5052240;28;20168;-64
2023/07/07 12:50:47;;;;;;;0.10;0.10;;;36.10;31.80;;;;;;5052013;28;20193;-64
2023/07/07 12:53:27;;;;;;;0.28;0.28;;;36.10;31.80;;;;;;5051963;28;20612;-65
2023/07/07 12:56:06;;;;;;;0.00;0.00;;;36.10;30.20;;;;;;5051924;28;20176;-64
2023/07/07 12:58:56;;;;;;;0.00;0.00;;;36.10;30.40;;;;;;5051849;28;20223;-64
2023/07/07 13:01:34;;;;;;;0.00;0.00;;;36.10;29.70;;;;;;5051842;28;20212;-64
2023/07/07 13:04:07;;;;;;;0.10;0.10;;;36.10;30.10;;;;;;5051822;28;20176;-64
2023/07/07 13:06:37;;;;;;;0.20;0.13;;;36.10;30.40;;;;;;5051595;28;20187;-65
2023/07/07 13:09:18;;;;;;;0.10;0.10;;;35.70;29.80;;;;;;5051762;28;20283;-64